Terminal Aerodrome Forecast
Issued by NWS

Home | Current Version | Previous Version | Graphics & Text | Print | Product List | Glossary On
Versions: 1 2 3 4 5 6 7 8 9 10 11 12 13 14 15
000
FTUS43 KGRB 220500
TAFRHI
TAF
KRHI 220520Z 2206/2306 32010KT P6SM SCT025 BKN040
      TEMPO 2208/2212 -SN BKN025
     FM221500 33012G20KT P6SM BKN035
     FM222200 34006KT P6SM FEW040
     FM230100 00000KT P6SM SKC=

USA.gov is the U.S. government's official web portal to all federal, state and local government web resources and services.